Time;durP1;ratioP1;P1;durP2;ratioP2;P2;SDS_P1;SDS_P2;PMS_P1;PMS_P2;Temp;Humidity;BMP_temperature;BMP_pressure;BME280_temperature;BME280_humidity;BME280_pressure;Samples;Min_cycle;Max_cycle;Signal;HPM_P1;HPM_P2
2021/08/05 00:02:10;;;;;;;17.87;16.07;;;;;;;;;;5098184;28;20944;-81
2021/08/05 00:04:37;;;;;;;18.00;16.10;;;;;;;;;;5098298;28;20827;-81
2021/08/05 00:07:07;;;;;;;17.87;16.10;;;;;;;;;;5099375;28;20487;-81
2021/08/05 00:09:34;;;;;;;19.00;16.93;;;;;;;;;;5097849;28;20448;-83
2021/08/05 00:12:01;;;;;;;18.30;16.50;;;;;;;;;;5098017;28;20951;-81
2021/08/05 00:14:28;;;;;;;17.00;15.60;;;;;;;;;;5097846;28;20793;-81
2021/08/05 00:16:56;;;;;;;19.17;15.60;;;;;;;;;;5097279;28;20466;-80
2021/08/05 00:19:23;;;;;;;16.23;14.80;;;;;;;;;;5096812;28;20437;-81
2021/08/05 00:21:50;;;;;;;17.17;14.70;;;;;;;;;;5096908;28;20444;-81
2021/08/05 00:24:18;;;;;;;16.90;15.20;;;;;;;;;;5096908;28;20803;-81
2021/08/05 00:26:46;;;;;;;16.43;14.73;;;;;;;;;;5097059;28;20444;-81
2021/08/05 00:29:13;;;;;;;15.97;14.53;;;;;;;;;;5096756;28;20436;-81
2021/08/05 00:31:40;;;;;;;16.67;15.30;;;;;;;;;;5097002;28;20444;-81
2021/08/05 00:34:07;;;;;;;17.40;15.80;;;;;;;;;;5097374;28;20455;-79
2021/08/05 00:36:35;;;;;;;18.33;16.60;;;;;;;;;;5096606;28;20517;-79
2021/08/05 00:39:02;;;;;;;18.23;16.53;;;;;;;;;;5096533;28;20441;-79
2021/08/05 00:41:30;;;;;;;17.53;15.87;;;;;;;;;;5096826;28;20447;-79
2021/08/05 00:44:00;;;;;;;19.07;17.17;;;;;;;;;;5096674;28;20446;-79
2021/08/05 00:46:27;;;;;;;17.07;15.47;;;;;;;;;;5097089;28;20446;-79
2021/08/05 00:48:54;;;;;;;19.37;17.67;;;;;;;;;;5096430;28;20444;-80
2021/08/05 00:51:22;;;;;;;18.93;17.07;;;;;;;;;;5096594;28;20435;-80
2021/08/05 00:53:49;;;;;;;21.17;19.17;;;;;;;;;;5096394;28;20531;-80
2021/08/05 00:56:16;;;;;;;18.27;16.60;;;;;;;;;;5097313;28;20436;-80
2021/08/05 00:58:45;;;;;;;19.10;17.53;;;;;;;;;;5096467;28;20450;-80
2021/08/05 01:01:15;;;;;;;18.90;17.10;;;;;;;;;;5096087;28;20440;-79
2021/08/05 01:03:43;;;;;;;20.53;18.00;;;;;;;;;;5097416;28;20435;-81
2021/08/05 01:06:16;;;;;;;18.60;16.70;;;;;;;;;;5096456;28;20477;-81
2021/08/05 01:08:47;;;;;;;19.20;17.30;;;;;;;;;;5096648;28;20479;-81
2021/08/05 01:11:17;;;;;;;19.90;17.90;;;;;;;;;;5096569;28;20426;-81
2021/08/05 01:13:50;;;;;;;22.30;20.10;;;;;;;;;;5096344;28;20447;-81
2021/08/05 01:16:19;;;;;;;20.80;18.83;;;;;;;;;;5096119;28;20911;-81
2021/08/05 01:18:47;;;;;;;20.77;18.53;;;;;;;;;;5096319;28;20439;-81
2021/08/05 01:21:16;;;;;;;19.20;17.40;;;;;;;;;;5096367;28;20440;-81
2021/08/05 01:23:45;;;;;;;18.80;17.20;;;;;;;;;;5096402;28;20517;-81
2021/08/05 01:26:14;;;;;;;20.77;18.80;;;;;;;;;;5096075;28;20567;-81
2021/08/05 01:28:44;;;;;;;20.30;18.40;;;;;;;;;;5095785;28;20461;-81
2021/08/05 01:31:12;;;;;;;20.00;17.70;;;;;;;;;;5096233;28;20509;-81
2021/08/05 01:33:40;;;;;;;19.43;17.60;;;;;;;;;;5095708;28;20457;-81
2021/08/05 01:36:07;;;;;;;18.53;16.83;;;;;;;;;;5096125;28;20436;-81
2021/08/05 01:38:35;;;;;;;21.67;17.13;;;;;;;;;;5095795;28;20940;-81
2021/08/05 01:41:03;;;;;;;19.00;17.20;;;;;;;;;;5096767;28;20441;-81
2021/08/05 01:43:31;;;;;;;18.27;16.37;;;;;;;;;;5096218;28;20448;-81
2021/08/05 01:45:59;;;;;;;18.60;16.80;;;;;;;;;;5095917;28;20487;-81
2021/08/05 01:48:27;;;;;;;17.80;16.30;;;;;;;;;;5096202;28;20431;-81
2021/08/05 01:50:54;;;;;;;18.37;16.47;;;;;;;;;;5095689;28;20445;-81
2021/08/05 01:53:22;;;;;;;19.00;17.13;;;;;;;;;;5096015;28;20475;-80
2021/08/05 01:55:49;;;;;;;18.90;17.00;;;;;;;;;;5095313;28;20443;-79
2021/08/05 01:58:16;;;;;;;19.17;17.47;;;;;;;;;;5095208;28;20446;-81
2021/08/05 02:00:44;;;;;;;19.97;18.00;;;;;;;;;;5095137;28;20448;-81
2021/08/05 02:03:14;;;;;;;19.37;17.67;;;;;;;;;;5095822;28;20458;-80
2021/08/05 02:05:44;;;;;;;19.43;17.73;;;;;;;;;;5095354;28;20499;-80
2021/08/05 02:08:14;;;;;;;18.17;16.47;;;;;;;;;;5095108;28;20432;-80
2021/08/05 02:10:42;;;;;;;21.27;19.10;;;;;;;;;;5094982;28;20475;-79
2021/08/05 02:13:12;;;;;;;20.60;18.70;;;;;;;;;;5094923;28;21040;-80
2021/08/05 02:15:43;;;;;;;21.20;18.97;;;;;;;;;;5095240;28;20482;-80
2021/08/05 02:18:11;;;;;;;20.77;18.77;;;;;;;;;;5095365;28;20430;-80
2021/08/05 02:20:40;;;;;;;19.40;17.60;;;;;;;;;;5095670;28;20441;-80
2021/08/05 02:23:10;;;;;;;19.90;17.80;;;;;;;;;;5094386;28;20950;-79
2021/08/05 02:25:38;;;;;;;20.43;18.47;;;;;;;;;;5095407;28;20486;-80
2021/08/05 02:28:05;;;;;;;19.43;17.53;;;;;;;;;;5094974;28;20462;-80
2021/08/05 02:30:32;;;;;;;19.17;17.17;;;;;;;;;;5094854;28;20964;-80
2021/08/05 02:33:00;;;;;;;20.47;18.57;;;;;;;;;;5095179;28;20788;-80
2021/08/05 02:35:28;;;;;;;19.50;17.80;;;;;;;;;;5095161;28;20439;-80
2021/08/05 02:37:56;;;;;;;19.30;17.50;;;;;;;;;;5095243;28;20448;-80
2021/08/05 02:40:23;;;;;;;19.90;18.00;;;;;;;;;;5094374;28;20446;-80
2021/08/05 02:42:51;;;;;;;17.37;15.80;;;;;;;;;;5094850;28;20448;-80
2021/08/05 02:45:18;;;;;;;17.33;15.80;;;;;;;;;;5094536;28;20473;-80
2021/08/05 02:47:46;;;;;;;18.40;16.70;;;;;;;;;;5094888;28;20465;-80
2021/08/05 02:50:14;;;;;;;19.67;17.77;;;;;;;;;;5094180;28;20440;-80
2021/08/05 02:52:42;;;;;;;18.50;16.80;;;;;;;;;;5094962;28;20445;-80
2021/08/05 02:55:11;;;;;;;20.47;16.97;;;;;;;;;;5094753;28;20806;-80
2021/08/05 02:57:39;;;;;;;18.03;16.37;;;;;;;;;;5094879;28;20440;-80
2021/08/05 03:00:07;;;;;;;18.07;16.30;;;;;;;;;;5094577;28;20441;-80
2021/08/05 03:02:34;;;;;;;17.90;16.27;;;;;;;;;;5094285;28;20786;-80
2021/08/05 03:05:02;;;;;;;17.87;16.23;;;;;;;;;;5093856;28;20479;-80
2021/08/05 03:07:29;;;;;;;17.03;15.50;;;;;;;;;;5094249;28;20439;-80
2021/08/05 03:09:56;;;;;;;18.27;16.53;;;;;;;;;;5093837;28;20441;-80
2021/08/05 03:12:24;;;;;;;16.83;15.17;;;;;;;;;;5093805;28;20443;-80
2021/08/05 03:14:52;;;;;;;16.67;15.17;;;;;;;;;;5094064;28;20531;-79
2021/08/05 03:17:19;;;;;;;16.37;14.87;;;;;;;;;;5093983;28;20443;-79
2021/08/05 03:19:46;;;;;;;17.50;16.07;;;;;;;;;;5093916;28;20448;-80
2021/08/05 03:22:13;;;;;;;17.13;15.60;;;;;;;;;;5093445;28;20443;-80
2021/08/05 03:24:41;;;;;;;17.17;15.47;;;;;;;;;;5093451;28;20540;-80
2021/08/05 03:27:08;;;;;;;16.50;15.00;;;;;;;;;;5094007;28;20837;-79
2021/08/05 03:29:37;;;;;;;17.33;15.73;;;;;;;;;;5093631;28;20433;-80
2021/08/05 03:32:05;;;;;;;17.50;15.80;;;;;;;;;;5093240;28;20445;-79
2021/08/05 03:34:32;;;;;;;18.03;16.27;;;;;;;;;;5092862;28;20448;-79
2021/08/05 03:37:03;;;;;;;17.17;15.67;;;;;;;;;;5093972;28;20455;-81
2021/08/05 03:39:34;;;;;;;17.13;15.43;;;;;;;;;;5093565;28;20440;-82
2021/08/05 03:42:01;;;;;;;16.03;14.50;;;;;;;;;;5094199;28;20439;-81
2021/08/05 03:44:28;;;;;;;16.93;15.33;;;;;;;;;;5093608;28;20450;-81
2021/08/05 03:46:57;;;;;;;17.80;16.20;;;;;;;;;;5093659;28;20501;-81
2021/08/05 03:49:24;;;;;;;19.10;17.40;;;;;;;;;;5093517;28;20947;-83
2021/08/05 03:51:51;;;;;;;16.20;14.70;;;;;;;;;;5093570;28;20525;-82
2021/08/05 03:54:18;;;;;;;15.77;14.17;;;;;;;;;;5093224;28;20458;-83
2021/08/05 03:56:46;;;;;;;18.67;16.87;;;;;;;;;;5093491;28;20445;-79
2021/08/05 03:59:13;;;;;;;14.97;13.67;;;;;;;;;;5093099;28;20455;-78
2021/08/05 04:01:40;;;;;;;14.70;13.50;;;;;;;;;;5093225;28;20489;-80
2021/08/05 04:04:09;;;;;;;15.60;14.07;;;;;;;;;;5093395;28;20448;-80
2021/08/05 04:06:36;;;;;;;15.43;14.00;;;;;;;;;;5093744;28;20478;-78
2021/08/05 04:09:03;;;;;;;14.53;13.13;;;;;;;;;;5092950;28;20445;-78
2021/08/05 04:11:30;;;;;;;15.50;14.20;;;;;;;;;;5092941;28;20451;-78
2021/08/05 04:13:57;;;;;;;16.53;14.97;;;;;;;;;;5093326;28;20445;-79
2021/08/05 04:16:25;;;;;;;17.20;15.60;;;;;;;;;;5093272;28;20455;-79
2021/08/05 04:18:52;;;;;;;16.63;15.03;;;;;;;;;;5093617;28;20440;-76
2021/08/05 04:21:20;;;;;;;19.03;17.33;;;;;;;;;;5093253;28;20480;-75
2021/08/05 04:23:47;;;;;;;21.00;19.10;;;;;;;;;;5093165;28;20474;-76
2021/08/05 04:26:15;;;;;;;19.80;17.97;;;;;;;;;;5092788;28;20480;-76
2021/08/05 04:28:42;;;;;;;19.40;17.50;;;;;;;;;;5093340;28;20444;-77
2021/08/05 04:31:09;;;;;;;19.03;17.33;;;;;;;;;;5092857;28;20441;-76
2021/08/05 04:33:36;;;;;;;18.10;16.57;;;;;;;;;;5098315;28;20449;-76
2021/08/05 04:36:03;;;;;;;17.80;16.20;;;;;;;;;;5106404;28;20857;-76
2021/08/05 04:38:32;;;;;;;17.80;16.20;;;;;;;;;;5112871;28;20439;-76
2021/08/05 04:40:59;;;;;;;20.03;18.27;;;;;;;;;;5113298;28;20462;-76
2021/08/05 04:43:26;;;;;;;22.50;17.70;;;;;;;;;;5114161;28;20442;-75
2021/08/05 04:45:54;;;;;;;19.13;17.33;;;;;;;;;;5114254;28;20478;-75
2021/08/05 04:48:21;;;;;;;19.20;17.30;;;;;;;;;;5116837;28;20479;-76
2021/08/05 04:50:48;;;;;;;19.03;17.03;;;;;;;;;;5117722;28;20521;-76
2021/08/05 04:53:17;;;;;;;19.47;17.67;;;;;;;;;;5117166;28;20523;-75
2021/08/05 04:55:46;;;;;;;21.97;17.80;;;;;;;;;;5116825;28;20447;-76
2021/08/05 04:58:13;;;;;;;19.07;17.27;;;;;;;;;;5116363;28;20946;-75
2021/08/05 05:00:41;;;;;;;21.97;19.90;;;;;;;;;;5117209;28;20531;-76
2021/08/05 05:03:09;;;;;;;20.40;18.60;;;;;;;;;;5109919;28;20447;-77
2021/08/05 05:05:37;;;;;;;21.77;19.43;;;;;;;;;;5096118;28;20476;-77
2021/08/05 05:08:14;;;;;;;21.33;19.23;;;;;;;;;;5096842;28;20440;-77
2021/08/05 05:10:41;;;;;;;20.47;18.47;;;;;;;;;;5096338;28;20521;-78
2021/08/05 05:13:09;;;;;;;22.40;20.50;;;;;;;;;;5096077;28;20518;-76
2021/08/05 05:15:37;;;;;;;24.13;21.93;;;;;;;;;;5096093;28;20481;-76
2021/08/05 05:18:05;;;;;;;25.17;22.73;;;;;;;;;;5096003;28;20444;-76
2021/08/05 05:20:32;;;;;;;22.27;20.10;;;;;;;;;;5095497;28;20445;-77
2021/08/05 05:23:00;;;;;;;24.07;21.87;;;;;;;;;;5095398;28;20482;-76
2021/08/05 05:25:27;;;;;;;24.07;21.77;;;;;;;;;;5095174;28;20503;-76
2021/08/05 05:27:55;;;;;;;23.97;21.83;;;;;;;;;;5095741;28;20805;-76
2021/08/05 05:30:30;;;;;;;21.30;19.37;;;;;;;;;;5095661;28;20433;-76
2021/08/05 05:32:57;;;;;;;24.13;21.53;;;;;;;;;;5095929;28;20441;-78
2021/08/05 05:35:24;;;;;;;23.37;21.07;;;;;;;;;;5096311;28;20731;-78
2021/08/05 05:37:53;;;;;;;22.27;20.17;;;;;;;;;;5095604;28;20535;-73
2021/08/05 05:40:21;;;;;;;24.20;21.90;;;;;;;;;;5095241;28;20475;-74
2021/08/05 05:42:48;;;;;;;22.80;20.17;;;;;;;;;;5095016;28;20468;-74
2021/08/05 05:45:16;;;;;;;23.53;21.10;;;;;;;;;;5095314;28;20447;-73
2021/08/05 05:47:45;;;;;;;23.10;18.93;;;;;;;;;;5094986;28;20999;-74
2021/08/05 05:50:12;;;;;;;21.97;19.87;;;;;;;;;;5095077;28;20447;-73
2021/08/05 05:52:40;;;;;;;21.83;19.83;;;;;;;;;;5094779;28;20446;-73
2021/08/05 05:55:08;;;;;;;21.10;19.00;;;;;;;;;;5095539;28;20919;-73
2021/08/05 05:57:35;;;;;;;21.30;19.30;;;;;;;;;;5094454;28;20523;-73
2021/08/05 06:00:03;;;;;;;21.00;18.90;;;;;;;;;;5095611;28;20442;-73
2021/08/05 06:02:30;;;;;;;21.20;19.20;;;;;;;;;;5095031;28;20585;-74
2021/08/05 06:04:58;;;;;;;21.07;18.93;;;;;;;;;;5094687;28;20466;-74
2021/08/05 06:07:26;;;;;;;21.73;19.73;;;;;;;;;;5095003;28;20478;-74
2021/08/05 06:09:53;;;;;;;25.87;20.90;;;;;;;;;;5094739;28;20438;-74
2021/08/05 06:12:20;;;;;;;21.23;18.93;;;;;;;;;;5094621;28;20981;-74
2021/08/05 06:14:47;;;;;;;19.47;17.37;;;;;;;;;;5095659;28;20531;-73
2021/08/05 06:17:14;;;;;;;21.33;19.33;;;;;;;;;;5094558;28;20447;-74
2021/08/05 06:19:42;;;;;;;21.47;19.30;;;;;;;;;;5094929;28;20439;-74
2021/08/05 06:22:11;;;;;;;21.23;19.27;;;;;;;;;;5094896;28;20447;-74
2021/08/05 06:24:38;;;;;;;21.57;19.33;;;;;;;;;;5094914;28;20685;-74
2021/08/05 06:27:05;;;;;;;21.67;19.37;;;;;;;;;;5094175;28;20994;-73
2021/08/05 06:29:34;;;;;;;21.47;19.43;;;;;;;;;;5095064;28;20789;-74
2021/08/05 06:32:01;;;;;;;21.60;19.37;;;;;;;;;;5094602;28;20458;-73
2021/08/05 06:34:28;;;;;;;19.97;17.97;;;;;;;;;;5093925;28;20469;-73
2021/08/05 06:36:55;;;;;;;18.53;16.73;;;;;;;;;;5094525;28;20809;-74
2021/08/05 06:39:24;;;;;;;20.97;18.87;;;;;;;;;;5094431;28;20441;-73
2021/08/05 06:41:51;;;;;;;20.13;18.33;;;;;;;;;;5094153;28;20447;-73
2021/08/05 06:44:18;;;;;;;21.40;19.17;;;;;;;;;;5094410;28;20466;-73
2021/08/05 06:46:46;;;;;;;19.07;17.37;;;;;;;;;;5094375;28;20486;-74
2021/08/05 06:49:13;;;;;;;21.30;18.70;;;;;;;;;;5094402;28;20450;-73
2021/08/05 06:51:40;;;;;;;20.37;18.47;;;;;;;;;;5094485;28;20824;-73
2021/08/05 06:54:07;;;;;;;20.70;18.60;;;;;;;;;;5094417;28;20447;-73
2021/08/05 06:56:36;;;;;;;22.37;19.97;;;;;;;;;;5094045;28;20458;-73
2021/08/05 06:59:03;;;;;;;22.07;19.70;;;;;;;;;;5094252;28;20445;-74
2021/08/05 07:01:30;;;;;;;21.53;19.33;;;;;;;;;;5094346;28;20440;-73
2021/08/05 07:03:58;;;;;;;21.07;19.20;;;;;;;;;;5095137;28;20507;-76
2021/08/05 07:06:25;;;;;;;22.03;19.93;;;;;;;;;;5094170;28;20472;-73
2021/08/05 07:08:52;;;;;;;22.73;20.53;;;;;;;;;;5094085;28;20447;-73
2021/08/05 07:11:19;;;;;;;22.17;20.03;;;;;;;;;;5094164;28;20443;-73
2021/08/05 07:13:48;;;;;;;20.70;18.70;;;;;;;;;;5094935;28;20442;-74
2021/08/05 07:16:15;;;;;;;21.80;19.50;;;;;;;;;;5093688;28;20440;-73
2021/08/05 07:18:42;;;;;;;21.57;19.50;;;;;;;;;;5093609;28;20441;-73
2021/08/05 07:21:09;;;;;;;21.10;19.10;;;;;;;;;;5093634;28;20446;-73
2021/08/05 07:23:37;;;;;;;21.67;19.43;;;;;;;;;;5093360;28;20467;-73
2021/08/05 07:26:04;;;;;;;26.47;19.77;;;;;;;;;;5093754;28;20436;-74
2021/08/05 07:28:31;;;;;;;21.93;19.73;;;;;;;;;;5093592;28;20554;-74
2021/08/05 07:31:00;;;;;;;22.43;20.23;;;;;;;;;;5093879;28;20535;-74
2021/08/05 07:33:27;;;;;;;23.77;19.80;;;;;;;;;;5093990;28;20432;-74
2021/08/05 07:35:54;;;;;;;20.87;18.77;;;;;;;;;;5093460;28;20455;-74
2021/08/05 07:38:23;;;;;;;20.20;18.33;;;;;;;;;;5093450;28;20443;-74
2021/08/05 07:40:50;;;;;;;22.17;19.17;;;;;;;;;;5093753;28;20536;-74
2021/08/05 07:43:17;;;;;;;23.73;19.10;;;;;;;;;;5093369;28;20448;-75
2021/08/05 07:45:44;;;;;;;23.23;19.93;;;;;;;;;;5093672;28;20462;-75
2021/08/05 07:48:13;;;;;;;22.93;20.50;;;;;;;;;;5093584;28;20483;-75
2021/08/05 07:50:40;;;;;;;20.93;18.90;;;;;;;;;;5093620;28;20470;-75
2021/08/05 07:53:07;;;;;;;21.97;19.43;;;;;;;;;;5093622;28;20525;-75
2021/08/05 07:55:34;;;;;;;20.00;17.90;;;;;;;;;;5093725;28;20552;-75
2021/08/05 07:58:01;;;;;;;18.90;17.10;;;;;;;;;;5093228;28;20457;-75
2021/08/05 08:00:29;;;;;;;21.20;18.67;;;;;;;;;;5093176;28;21005;-75
2021/08/05 08:02:56;;;;;;;19.90;17.63;;;;;;;;;;5094323;28;20520;-74
2021/08/05 08:05:24;;;;;;;20.40;18.60;;;;;;;;;;5093534;28;20444;-75
2021/08/05 08:07:52;;;;;;;21.13;18.93;;;;;;;;;;5093410;28;20568;-75
2021/08/05 08:10:19;;;;;;;19.83;17.87;;;;;;;;;;5093813;28;20473;-74
2021/08/05 08:12:46;;;;;;;17.53;15.60;;;;;;;;;;5093787;28;20524;-75
2021/08/05 08:15:14;;;;;;;19.50;17.50;;;;;;;;;;5093548;28;20440;-75
2021/08/05 08:17:41;;;;;;;21.53;18.33;;;;;;;;;;5093619;28;20447;-75
2021/08/05 08:20:09;;;;;;;19.40;17.50;;;;;;;;;;5093346;28;20443;-75
2021/08/05 08:22:38;;;;;;;16.97;15.30;;;;;;;;;;5097093;28;20951;-75
2021/08/05 08:25:06;;;;;;;16.97;15.33;;;;;;;;;;5097738;28;20457;-75
2021/08/05 08:27:33;;;;;;;21.80;16.60;;;;;;;;;;5097293;28;20478;-75
2021/08/05 08:30:00;;;;;;;18.63;17.03;;;;;;;;;;5096988;28;21013;-75
2021/08/05 08:32:28;;;;;;;16.30;14.57;;;;;;;;;;5097687;28;20480;-75
2021/08/05 08:34:55;;;;;;;18.23;16.53;;;;;;;;;;5097099;28;20446;-75
2021/08/05 08:37:22;;;;;;;16.47;14.83;;;;;;;;;;5096762;28;20525;-75
2021/08/05 08:39:51;;;;;;;17.33;15.63;;;;;;;;;;5097048;28;20436;-75
2021/08/05 08:42:18;;;;;;;22.40;16.40;;;;;;;;;;5096728;28;20443;-76
2021/08/05 08:44:46;;;;;;;17.40;15.40;;;;;;;;;;5096636;28;20527;-75
2021/08/05 08:47:13;;;;;;;18.83;17.10;;;;;;;;;;5096597;28;20473;-74
2021/08/05 08:49:43;;;;;;;18.43;16.27;;;;;;;;;;5096856;28;20435;-74
2021/08/05 08:52:10;;;;;;;18.60;16.90;;;;;;;;;;5096469;28;20450;-74
2021/08/05 08:54:40;;;;;;;19.43;16.33;;;;;;;;;;5096699;28;20442;-74
2021/08/05 08:57:09;;;;;;;19.73;16.27;;;;;;;;;;5097127;28;20534;-75
2021/08/05 08:59:36;;;;;;;16.20;14.60;;;;;;;;;;5096708;28;20447;-74
2021/08/05 09:02:03;;;;;;;16.53;14.90;;;;;;;;;;5096659;28;20445;-74
2021/08/05 09:04:31;;;;;;;16.40;14.80;;;;;;;;;;5096574;28;20438;-74
2021/08/05 09:06:59;;;;;;;18.33;16.53;;;;;;;;;;5096435;28;20470;-74
2021/08/05 09:09:26;;;;;;;16.80;15.10;;;;;;;;;;5096500;28;20447;-75
2021/08/05 09:11:53;;;;;;;16.20;14.47;;;;;;;;;;5096523;28;20451;-75
2021/08/05 09:14:35;;;;;;;14.33;12.93;;;;;;;;;;5096840;28;20450;-75
2021/08/05 09:17:15;;;;;;;15.40;13.80;;;;;;;;;;5095737;28;20456;-74
2021/08/05 09:19:43;;;;;;;15.10;13.70;;;;;;;;;;5096475;28;20428;-75
2021/08/05 09:22:10;;;;;;;15.53;13.97;;;;;;;;;;5096490;28;20438;-75
2021/08/05 09:24:37;;;;;;;15.70;14.13;;;;;;;;;;5095708;28;20992;-74
2021/08/05 09:27:04;;;;;;;16.90;15.10;;;;;;;;;;5096172;28;20838;-74
2021/08/05 09:29:31;;;;;;;19.30;14.37;;;;;;;;;;5095871;28;20493;-74
2021/08/05 09:32:00;;;;;;;17.17;15.43;;;;;;;;;;5095000;28;20458;-74
2021/08/05 09:34:34;;;;;;;15.93;14.33;;;;;;;;;;5095536;28;20938;-75
2021/08/05 09:37:03;;;;;;;16.93;13.63;;;;;;;;;;5096022;28;20455;-74
2021/08/05 09:39:31;;;;;;;15.70;14.23;;;;;;;;;;5095640;28;20504;-74
2021/08/05 09:42:00;;;;;;;17.47;14.70;;;;;;;;;;5095874;28;20444;-74
2021/08/05 09:44:27;;;;;;;19.23;14.07;;;;;;;;;;5096291;28;20448;-74
2021/08/05 09:47:05;;;;;;;13.83;12.60;;;;;;;;;;5096500;28;20773;-74
2021/08/05 09:49:34;;;;;;;15.60;14.00;;;;;;;;;;5095690;28;20441;-73
2021/08/05 09:52:02;;;;;;;18.70;14.33;;;;;;;;;;5095918;28;20436;-74
2021/08/05 09:54:39;;;;;;;15.93;13.90;;;;;;;;;;5095769;28;20809;-74
2021/08/05 09:57:07;;;;;;;15.73;13.60;;;;;;;;;;5095885;28;20431;-74
2021/08/05 09:59:34;;;;;;;14.53;13.23;;;;;;;;;;5095622;28;20444;-74
2021/08/05 10:02:03;;;;;;;15.80;14.10;;;;;;;;;;5095225;28;20437;-74
2021/08/05 10:04:31;;;;;;;14.20;12.90;;;;;;;;;;5095457;28;20442;-75
2021/08/05 10:07:01;;;;;;;13.83;12.43;;;;;;;;;;5094993;28;20442;-74
2021/08/05 10:09:28;;;;;;;13.73;11.67;;;;;;;;;;5095014;28;20948;-74
2021/08/05 10:12:09;;;;;;;11.00;10.00;;;;;;;;;;5094976;28;20478;-75
2021/08/05 10:14:37;;;;;;;8.10;7.40;;;;;;;;;;5095133;28;20929;-75
2021/08/05 10:17:06;;;;;;;7.73;6.70;;;;;;;;;;5094870;28;20445;-74
2021/08/05 10:19:37;;;;;;;7.10;6.50;;;;;;;;;;5095040;28;20447;-74
2021/08/05 10:22:06;;;;;;;8.30;7.60;;;;;;;;;;5095329;28;20434;-74
2021/08/05 10:24:35;;;;;;;12.10;7.23;;;;;;;;;;5095018;28;20553;-74
2021/08/05 10:27:02;;;;;;;8.10;7.37;;;;;;;;;;5094508;28;20805;-75
2021/08/05 10:29:29;;;;;;;8.23;7.40;;;;;;;;;;5094846;28;20534;-75
2021/08/05 10:31:57;;;;;;;6.53;6.03;;;;;;;;;;5095109;28;20441;-75
2021/08/05 10:34:25;;;;;;;12.10;7.70;;;;;;;;;;5094821;28;20450;-75
2021/08/05 10:36:52;;;;;;;6.30;5.80;;;;;;;;;;5094267;28;20439;-74
2021/08/05 10:39:20;;;;;;;6.53;6.03;;;;;;;;;;5094653;28;20441;-72
2021/08/05 10:41:48;;;;;;;8.73;7.17;;;;;;;;;;5094967;28;20460;-75
2021/08/05 10:44:16;;;;;;;8.80;7.90;;;;;;;;;;5094207;28;20527;-74
2021/08/05 10:46:43;;;;;;;9.23;8.40;;;;;;;;;;5094713;28;20565;-72
2021/08/05 10:49:11;;;;;;;8.40;7.63;;;;;;;;;;5094189;28;20562;-73
2021/08/05 10:51:41;;;;;;;8.10;7.47;;;;;;;;;;5094527;28;20437;-74
2021/08/05 10:54:08;;;;;;;8.53;7.83;;;;;;;;;;5094454;28;20477;-74
2021/08/05 10:56:37;;;;;;;10.03;7.77;;;;;;;;;;5094051;28;20431;-75
2021/08/05 10:59:09;;;;;;;8.43;7.50;;;;;;;;;;5094295;28;20450;-74
2021/08/05 11:01:49;;;;;;;9.27;8.40;;;;;;;;;;5094679;28;20530;-74
2021/08/05 11:04:35;;;;;;;6.30;5.70;;;;;;;;;;5094082;28;20432;-76
2021/08/05 11:07:17;;;;;;;5.30;4.90;;;;;;;;;;5094598;28;20447;-76
2021/08/05 11:09:44;;;;;;;4.90;4.50;;;;;;;;;;5093329;28;20545;-76
2021/08/05 11:12:30;;;;;;;8.50;4.87;;;;;;;;;;5093840;28;20493;-76
2021/08/05 11:14:59;;;;;;;5.23;4.83;;;;;;;;;;5094203;28;20842;-75
2021/08/05 11:17:26;;;;;;;5.37;4.97;;;;;;;;;;5094094;28;20440;-75
2021/08/05 11:20:16;;;;;;;6.47;4.17;;;;;;;;;;5094472;28;20443;-76
2021/08/05 11:22:45;;;;;;;5.07;4.67;;;;;;;;;;5094656;28;20426;-75
2021/08/05 11:25:13;;;;;;;3.43;3.20;;;;;;;;;;5093597;28;20449;-76
2021/08/05 11:27:45;;;;;;;4.80;4.50;;;;;;;;;;5093522;28;20531;-76
2021/08/05 11:30:31;;;;;;;4.40;4.00;;;;;;;;;;5094120;28;20485;-76
2021/08/05 11:33:01;;;;;;;6.50;4.83;;;;;;;;;;5093825;28;20484;-76
2021/08/05 11:35:28;;;;;;;4.53;4.13;;;;;;;;;;5093942;28;20438;-76
2021/08/05 11:38:12;;;;;;;4.40;4.10;;;;;;;;;;5093945;28;20528;-76
2021/08/05 11:40:42;;;;;;;4.20;3.73;;;;;;;;;;5093418;28;20457;-74
2021/08/05 11:43:19;;;;;;;4.10;3.80;;;;;;;;;;5094011;28;20437;-77
2021/08/05 11:46:01;;;;;;;4.67;4.27;;;;;;;;;;5093645;28;20437;-77
2021/08/05 11:48:37;;;;;;;4.10;3.80;;;;;;;;;;5092630;28;20477;-77
2021/08/05 11:51:04;;;;;;;6.87;4.30;;;;;;;;;;5093391;28;20422;-77
2021/08/05 11:53:31;;;;;;;3.80;3.60;;;;;;;;;;5093294;28;20446;-76
2021/08/05 11:55:58;;;;;;;3.57;3.30;;;;;;;;;;5093098;28;20442;-77
2021/08/05 11:58:25;;;;;;;4.30;3.87;;;;;;;;;;5093839;28;20447;-76
2021/08/05 12:00:53;;;;;;;4.00;3.60;;;;;;;;;;5093474;28;20446;-76
2021/08/05 12:03:20;;;;;;;4.60;4.30;;;;;;;;;;5093012;28;20440;-77
2021/08/05 12:05:49;;;;;;;4.10;3.80;;;;;;;;;;5093344;28;20460;-77
2021/08/05 12:08:20;;;;;;;5.40;4.17;;;;;;;;;;5093335;28;20558;-77
2021/08/05 12:10:48;;;;;;;5.53;4.67;;;;;;;;;;5093181;28;20514;-77
2021/08/05 12:13:16;;;;;;;5.07;4.53;;;;;;;;;;5093382;28;20447;-76
2021/08/05 12:15:44;;;;;;;4.70;4.23;;;;;;;;;;5093316;28;20442;-77
2021/08/05 12:18:13;;;;;;;5.00;4.40;;;;;;;;;;5093319;28;20444;-77
2021/08/05 12:20:40;;;;;;;4.30;3.90;;;;;;;;;;5093016;28;20939;-77
2021/08/05 12:23:13;;;;;;;4.33;4.00;;;;;;;;;;5093053;28;20522;-77
2021/08/05 12:25:43;;;;;;;3.90;3.60;;;;;;;;;;5093092;28;20511;-77
2021/08/05 12:28:13;;;;;;;3.87;3.60;;;;;;;;;;5093689;28;20476;-77
2021/08/05 12:30:44;;;;;;;4.60;4.20;;;;;;;;;;5093241;28;20812;-77
2021/08/05 12:33:13;;;;;;;3.90;3.60;;;;;;;;;;5093953;28;20534;-77
2021/08/05 12:35:41;;;;;;;4.00;3.60;;;;;;;;;;5093196;28;20524;-77
2021/08/05 12:38:11;;;;;;;4.00;3.70;;;;;;;;;;5093136;28;20542;-77
2021/08/05 12:40:40;;;;;;;4.73;4.20;;;;;;;;;;5093412;28;20449;-77
2021/08/05 12:43:08;;;;;;;8.63;4.90;;;;;;;;;;5093465;28;20947;-77
2021/08/05 12:45:40;;;;;;;4.37;4.07;;;;;;;;;;5092777;28;20444;-77
2021/08/05 12:48:08;;;;;;;5.10;4.70;;;;;;;;;;5093015;28;20481;-77
2021/08/05 12:50:38;;;;;;;5.80;4.80;;;;;;;;;;5093020;28;20440;-77
2021/08/05 12:53:05;;;;;;;5.23;4.83;;;;;;;;;;5093557;28;20435;-77
2021/08/05 12:55:47;;;;;;;5.03;4.53;;;;;;;;;;5092485;28;20453;-76
2021/08/05 12:58:19;;;;;;;5.10;4.60;;;;;;;;;;5092764;28;20433;-71
2021/08/05 13:00:46;;;;;;;5.40;4.90;;;;;;;;;;5093017;28;20837;-78
2021/08/05 13:03:13;;;;;;;5.17;4.77;;;;;;;;;;5092977;28;20441;-82
2021/08/05 13:05:53;;;;;;;6.07;5.57;;;;;;;;;;5093266;28;20453;-79
2021/08/05 13:08:34;;;;;;;5.93;5.53;;;;;;;;;;5095892;28;21007;-82
2021/08/05 13:11:03;;;;;;;6.10;5.60;;;;;;;;;;5098674;28;20804;-82
2021/08/05 13:13:48;;;;;;;5.53;5.13;;;;;;;;;;5096568;28;20442;-81
2021/08/05 13:16:19;;;;;;;6.13;5.63;;;;;;;;;;5096187;28;20437;-80
2021/08/05 13:18:59;;;;;;;5.23;4.83;;;;;;;;;;5109701;28;20541;-80
2021/08/05 13:21:27;;;;;;;4.73;4.23;;;;;;;;;;5096162;28;20513;-83
2021/08/05 13:23:54;;;;;;;5.47;4.90;;;;;;;;;;5096182;28;20471;-84
2021/08/05 13:26:32;;;;;;;4.70;4.37;;;;;;;;;;5096276;28;20528;-83
2021/08/05 13:29:01;;;;;;;5.37;4.87;;;;;;;;;;5096000;28;21003;-84
2021/08/05 13:31:28;;;;;;;5.87;4.40;;;;;;;;;;5095761;28;20437;-84
2021/08/05 13:34:10;;;;;;;4.47;4.17;;;;;;;;;;5095665;28;20452;-84
2021/08/05 13:36:38;;;;;;;4.60;4.20;;;;;;;;;;5093400;28;20449;-82
2021/08/05 13:39:06;;;;;;;5.50;5.00;;;;;;;;;;5095971;28;20545;-82
2021/08/05 13:41:33;;;;;;;6.53;4.97;;;;;;;;;;5096085;28;20520;-82
2021/08/05 13:44:02;;;;;;;4.87;4.47;;;;;;;;;;5096006;28;20445;-83
2021/08/05 13:46:29;;;;;;;8.80;5.00;;;;;;;;;;5095685;28;20611;-84
2021/08/05 13:48:57;;;;;;;6.07;5.67;;;;;;;;;;5095773;28;20516;-83
2021/08/05 13:51:25;;;;;;;5.40;5.00;;;;;;;;;;5096010;28;20442;-83
2021/08/05 13:53:52;;;;;;;5.90;5.50;;;;;;;;;;5096518;28;20420;-84
2021/08/05 13:56:19;;;;;;;6.00;5.40;;;;;;;;;;5096651;28;20447;-80
2021/08/05 13:58:46;;;;;;;5.60;5.20;;;;;;;;;;5095561;28;20996;-82
2021/08/05 14:01:15;;;;;;;5.93;5.43;;;;;;;;;;5095571;28;20449;-83
2021/08/05 14:03:43;;;;;;;6.43;5.60;;;;;;;;;;5095288;28;20475;-79
2021/08/05 14:06:10;;;;;;;5.97;5.50;;;;;;;;;;5097434;28;20802;-81
2021/08/05 14:08:37;;;;;;;5.70;5.20;;;;;;;;;;5095544;28;20564;-83
2021/08/05 14:11:04;;;;;;;7.17;6.20;;;;;;;;;;5095060;28;20921;-81
2021/08/05 14:13:32;;;;;;;6.77;6.17;;;;;;;;;;5106225;28;20449;-81
2021/08/05 14:15:59;;;;;;;8.10;6.97;;;;;;;;;;5095242;28;20444;-82
2021/08/05 14:18:27;;;;;;;8.37;7.57;;;;;;;;;;5112993;28;20441;-83
2021/08/05 14:20:55;;;;;;;8.00;7.30;;;;;;;;;;5115629;28;20437;-81
2021/08/05 14:23:24;;;;;;;8.80;8.20;;;;;;;;;;5115238;28;20464;-81
2021/08/05 14:25:51;;;;;;;10.90;10.00;;;;;;;;;;5115059;28;20455;-81
2021/08/05 14:28:19;;;;;;;11.90;10.80;;;;;;;;;;5115323;28;20442;-80
2021/08/05 14:30:46;;;;;;;10.77;9.80;;;;;;;;;;5115339;28;20516;-80
2021/08/05 14:33:13;;;;;;;11.50;10.33;;;;;;;;;;5115248;28;20808;-79